Time;durP1;ratioP1;P1;durP2;ratioP2;P2;SDS_P1;SDS_P2;PMS_P1;PMS_P2;Temp;Humidity;BMP_temperature;BMP_pressure;BME280_temperature;BME280_humidity;BME280_pressure;Samples;Min_cycle;Max_cycle;Signal;HPM_P1;HPM_P2
2022/12/16 00:00:01;;;;;;;15.30;12.70;;;;;;;21.92;41.16;94708.09;5053515;28;20052;-83
2022/12/16 00:02:26;;;;;;;13.73;12.23;;;;;;;22.07;41.12;94728.97;5068866;28;20514;-84
2022/12/16 00:04:51;;;;;;;14.75;12.65;;;;;;;21.90;40.80;94699.69;5063237;28;20017;-84
2022/12/16 00:07:17;;;;;;;15.82;12.95;;;;;;;21.94;41.20;94723.41;5071314;28;20488;-83
2022/12/16 00:09:42;;;;;;;16.05;13.45;;;;;;;22.02;41.58;94735.19;5071646;28;20044;-82
2022/12/16 00:12:08;;;;;;;15.15;12.73;;;;;;;21.96;41.08;94726.34;5071411;28;20041;-83
2022/12/16 00:14:33;;;;;;;14.23;12.73;;;;;;;22.00;41.51;94717.91;5057794;28;20439;-83
2022/12/16 00:16:58;;;;;;;14.65;12.77;;;;;;;22.05;41.04;94723.28;5036834;28;20013;-82
2022/12/16 00:19:24;;;;;;;14.38;12.57;;;;;;;22.07;41.28;94745.28;5070795;28;20425;-83
2022/12/16 00:21:49;;;;;;;14.70;12.85;;;;;;;20.82;41.00;94560.72;5071544;28;20048;-82
2022/12/16 00:24:15;;;;;;;15.48;13.52;;;;;;;22.07;41.30;94742.56;5067599;28;20052;-83
2022/12/16 00:26:40;;;;;;;15.18;13.30;;;;;;;21.83;41.26;94689.38;5066122;28;20041;-83
2022/12/16 00:29:06;;;;;;;15.93;12.88;;;;;;;21.95;41.21;94713.97;5057057;28;20101;-83
2022/12/16 00:31:31;;;;;;;16.25;13.50;;;;;;;21.39;41.02;94651.66;5070796;28;20040;-83
2022/12/16 00:33:57;;;;;;;15.25;13.50;;;;;;;21.99;41.33;94741.63;5068599;28;20048;-82
2022/12/16 00:36:22;;;;;;;15.18;13.27;;;;;;;22.01;41.22;94730.25;5043200;28;20434;-83
2022/12/16 00:38:50;;;;;;;16.75;13.32;;;;;;;21.99;41.53;94752.50;5056849;28;20512;-83
2022/12/16 00:41:16;;;;;;;16.98;13.50;;;;;;;21.30;41.13;94627.53;5049579;28;20054;-84
2022/12/16 00:43:41;;;;;;;15.77;13.13;;;;;;;21.64;41.27;94677.66;5046864;28;20032;-83
2022/12/16 00:46:07;;;;;;;16.27;13.60;;;;;;;21.91;41.23;94723.66;5032650;28;20032;-82
2022/12/16 00:48:32;;;;;;;16.08;13.30;;;;;;;21.79;41.25;94694.34;5052376;28;20109;-83
2022/12/16 00:50:57;;;;;;;16.05;13.60;;;;;;;21.74;41.24;94693.16;5065806;28;20052;-83
2022/12/16 00:53:24;;;;;;;17.52;14.70;;;;;;;21.19;41.24;94599.69;5052440;28;20017;-84
2022/12/16 00:55:51;;;;;;;16.63;14.27;;;;;;;21.94;41.48;94734.28;5071562;28;20052;-83
2022/12/16 00:58:16;;;;;;;17.20;14.32;;;;;;;21.84;41.64;94712.59;5042635;28;20029;-82
2022/12/16 01:00:42;;;;;;;16.67;14.15;;;;;;;21.80;41.31;94717.59;5063504;28;20126;-83
2022/12/16 01:03:07;;;;;;;17.20;13.95;;;;;;;21.81;41.06;94697.28;5036102;28;20101;-83
2022/12/16 01:05:32;;;;;;;17.52;14.80;;;;;;;21.81;41.34;94708.16;5035641;28;20021;-83
2022/12/16 01:07:58;;;;;;;17.63;14.50;;;;;;;21.71;41.39;94698.88;5070690;28;20470;-83
2022/12/16 01:10:24;;;;;;;17.50;14.82;;;;;;;21.91;41.51;94722.94;5052013;28;20040;-82
2022/12/16 01:12:49;;;;;;;16.95;13.50;;;;;;;21.90;41.38;94722.19;5052435;28;20101;-84
2022/12/16 01:15:15;;;;;;;17.83;14.65;;;;;;;21.70;41.50;94689.22;5043967;28;20041;-83
2022/12/16 01:17:40;;;;;;;16.48;14.00;;;;;;;21.87;41.61;94733.31;5026707;28;20047;-83
2022/12/16 01:20:06;;;;;;;19.45;15.32;;;;;;;21.91;41.31;94739.97;5053055;28;20122;-82
2022/12/16 01:22:32;;;;;;;17.40;14.55;;;;;;;21.70;41.45;94708.25;5040981;28;20049;-84
2022/12/16 01:24:58;;;;;;;17.25;15.38;;;;;;;21.88;41.38;94734.81;5066669;28;20115;-83
2022/12/16 01:27:24;;;;;;;16.70;14.63;;;;;;;21.77;41.54;94699.56;5025123;28;20075;-83
2022/12/16 01:29:49;;;;;;;17.70;15.13;;;;;;;21.41;41.42;94637.56;5052728;28;20051;-83
2022/12/16 01:32:14;;;;;;;18.33;15.30;;;;;;;21.67;41.37;94695.69;5050385;28;20047;-83
2022/12/16 01:34:41;;;;;;;17.90;14.95;;;;;;;21.62;41.67;94680.16;5036542;28;20043;-84
2022/12/16 01:37:10;;;;;;;16.55;14.77;;;;;;;21.82;41.60;94704.22;5037459;28;20059;-84
2022/12/16 01:39:35;;;;;;;16.45;14.63;;;;;;;21.88;41.52;94713.06;5035294;28;20085;-83
2022/12/16 01:42:00;;;;;;;18.10;15.07;;;;;;;21.64;41.58;94672.22;5056239;28;20045;-83
2022/12/16 01:44:26;;;;;;;17.27;14.85;;;;;;;21.69;41.35;94706.81;5052525;28;20047;-82
2022/12/16 01:46:59;;;;;;;19.50;15.63;;;;;;;21.63;41.42;94670.78;5053440;28;20027;-82
2022/12/16 01:49:32;;;;;;;17.88;15.10;;;;;;;21.59;41.55;94671.03;5051947;28;20136;-82
2022/12/16 01:51:59;;;;;;;18.02;15.50;;;;;;;21.75;41.46;94699.31;5036561;28;20491;-83
2022/12/16 01:54:36;;;;;;;18.85;15.88;;;;;;;20.94;41.52;94572.97;5036810;28;20040;-83
2022/12/16 01:57:10;;;;;;;17.95;15.38;;;;;;;21.74;41.44;94692.44;5052787;28;20051;-83
2022/12/16 01:59:37;;;;;;;18.30;16.25;;;;;;;21.68;41.52;94689.00;5044364;28;20048;-84
2022/12/16 02:02:02;;;;;;;18.30;16.05;;;;;;;21.77;41.62;94713.16;5037075;28;20020;-83
2022/12/16 02:04:28;;;;;;;20.02;16.55;;;;;;;21.63;41.54;94682.38;5052346;28;20093;-82
2022/12/16 02:06:53;;;;;;;19.65;16.08;;;;;;;21.62;41.33;94674.72;5054836;28;20064;-83
2022/12/16 02:09:19;;;;;;;18.67;15.90;;;;;;;21.79;41.50;94678.03;5020449;28;20114;-84
2022/12/16 02:11:53;;;;;;;21.08;17.52;;;;;;;21.75;41.41;94661.28;5063426;28;20568;-82
2022/12/16 02:14:30;;;;;;;19.30;16.65;;;;;;;21.76;41.41;94668.19;5050562;28;20033;-84
2022/12/16 02:17:02;;;;;;;20.50;16.58;;;;;;;21.73;41.61;94675.38;5068220;28;20491;-83
2022/12/16 02:19:34;;;;;;;19.40;16.13;;;;;;;21.74;41.64;94654.38;5035610;28;20059;-83
2022/12/16 02:22:21;;;;;;;21.10;17.27;;;;;;;21.76;41.60;94679.06;5069497;28;20060;-82
2022/12/16 02:25:25;;;;;;;20.58;16.75;;;;;;;21.74;41.65;94676.84;5061869;28;20040;-83
2022/12/16 02:27:54;;;;;;;21.98;17.23;;;;;;;21.39;41.56;94612.88;5068431;28;20044;-82
2022/12/16 02:30:51;;;;;;;20.88;17.17;;;;;;;21.75;41.55;94680.28;5060868;28;20491;-84
2022/12/16 02:33:26;;;;;;;19.63;17.35;;;;;;;21.70;41.55;94654.66;5051730;28;20123;-83
2022/12/16 02:36:20;;;;;;;22.88;17.95;;;;;;;21.70;41.59;94664.78;5056918;28;20340;-83
2022/12/16 02:38:47;;;;;;;22.70;18.50;;;;;;;21.74;41.56;94665.25;5043282;28;20044;-83
2022/12/16 02:41:43;;;;;;;20.85;17.33;;;;;;;21.71;41.69;94688.00;5056629;28;20112;-83
2022/12/16 02:44:09;;;;;;;20.17;17.10;;;;;;;21.71;41.63;94660.81;5031715;28;20429;-82
2022/12/16 02:46:42;;;;;;;21.65;17.63;;;;;;;21.72;41.85;94701.09;5038791;28;20205;-83
2022/12/16 02:49:10;;;;;;;21.80;18.27;;;;;;;21.71;41.55;94674.41;5038992;28;20045;-83
2022/12/16 02:51:36;;;;;;;21.27;17.83;;;;;;;21.59;41.68;94675.75;5059597;28;20037;-83
2022/12/16 02:54:02;;;;;;;22.85;18.13;;;;;;;21.60;41.50;94704.41;5051317;28;20052;-83
2022/12/16 02:56:35;;;;;;;20.50;17.83;;;;;;;21.56;41.72;94698.47;5048169;28;20053;-84
2022/12/16 02:59:13;;;;;;;23.27;18.80;;;;;;;21.66;41.69;94719.41;5055805;28;20317;-84
2022/12/16 03:01:41;;;;;;;21.77;18.52;;;;;;;21.68;41.64;94710.75;5072322;28;20525;-82
2022/12/16 03:04:09;;;;;;;21.30;18.48;;;;;;;21.68;41.99;94721.63;5072388;28;20041;-83
2022/12/16 03:06:35;;;;;;;23.35;18.23;;;;;;;21.64;41.67;94683.09;5037776;28;20051;-83
2022/12/16 03:09:02;;;;;;;22.75;18.60;;;;;;;21.58;41.89;94696.00;5038678;28;20048;-83
2022/12/16 03:11:28;;;;;;;21.55;18.90;;;;;;;21.29;41.66;94647.03;5038220;28;20036;-83
2022/12/16 03:13:54;;;;;;;22.27;18.77;;;;;;;21.64;41.70;94688.53;5038210;28;20024;-83
2022/12/16 03:16:20;;;;;;;21.67;17.70;;;;;;;21.41;41.89;94648.44;5072592;28;20055;-83
2022/12/16 03:18:49;;;;;;;22.95;18.33;;;;;;;21.36;41.62;94625.50;5038281;28;20055;-83
2022/12/16 03:21:14;;;;;;;21.83;18.55;;;;;;;21.63;41.90;94676.94;5038455;28;20503;-83
2022/12/16 03:23:43;;;;;;;22.38;18.92;;;;;;;21.63;41.79;94670.78;5023857;28;20037;-84
2022/12/16 03:26:13;;;;;;;23.48;19.42;;;;;;;21.36;41.63;94630.94;5037155;28;20513;-83
2022/12/16 03:29:05;;;;;;;22.52;18.15;;;;;;;21.51;41.61;94655.81;5030119;28;20044;-83
2022/12/16 03:31:37;;;;;;;25.58;19.95;;;;;;;21.34;41.70;94633.41;5049885;28;20518;-83
2022/12/16 03:34:32;;;;;;;21.02;18.02;;;;;;;21.23;41.72;94597.47;5054534;28;20116;-83
2022/12/16 03:37:00;;;;;;;24.52;19.52;;;;;;;21.40;41.65;94646.97;5040710;28;20055;-83
2022/12/16 03:39:26;;;;;;;22.80;19.50;;;;;;;21.13;41.81;94613.31;5066805;28;20037;-84
2022/12/16 03:41:53;;;;;;;22.73;18.90;;;;;;;21.47;41.64;94679.78;5038056;28;20045;-84
2022/12/16 03:44:21;;;;;;;24.15;18.98;;;;;;;20.71;41.90;94582.50;5019794;28;20116;-83
2022/12/16 03:46:47;;;;;;;24.10;19.70;;;;;;;21.02;41.78;94610.66;5028415;28;20029;-84
2022/12/16 03:49:13;;;;;;;22.25;19.17;;;;;;;21.52;41.66;94692.56;5036594;28;20036;-83
2022/12/16 03:51:38;;;;;;;22.08;19.10;;;;;;;21.59;41.84;94692.78;5052969;28;20029;-83
2022/12/16 03:54:04;;;;;;;23.05;19.52;;;;;;;21.39;41.88;94673.38;5052220;28;20037;-84
2022/12/16 03:56:29;;;;;;;24.00;19.63;;;;;;;21.28;41.82;94657.16;5053224;28;20383;-82
2022/12/16 03:58:54;;;;;;;23.70;19.90;;;;;;;21.36;41.87;94674.41;5068587;28;20082;-83
2022/12/16 04:01:22;;;;;;;22.60;19.25;;;;;;;21.53;41.83;94700.22;5042798;28;20395;-83
2022/12/16 04:03:47;;;;;;;24.20;20.20;;;;;;;21.39;41.65;94695.13;5071684;28;20059;-82
2022/12/16 04:06:17;;;;;;;22.90;19.27;;;;;;;20.96;41.73;94638.38;5062299;28;20033;-83
2022/12/16 04:08:45;;;;;;;24.33;20.33;;;;;;;21.56;41.84;94704.66;5038847;28;20048;-83
2022/12/16 04:25:22;;;;;;;24.55;19.60;;;;;;;21.55;41.65;94702.44;5055299;28;20046;-73
2022/12/16 04:27:48;;;;;;;27.30;19.70;;;;;;;21.03;41.62;94603.25;5052996;28;20053;-79
2022/12/16 04:30:20;;;;;;;22.95;19.08;;;;;;;21.26;41.58;94635.19;5033211;28;20676;-79
